Methodist Camp, Iowa
Current Conditions -  °F | °C
As of 6:53 PM on Saturday 22 Nov 2014 (Local Time) from KMJQ Reporting Station
Clear Clear  
Wind Chill: 29°   Ceiling: Unl
Heat Index: 37°   Visibility: 7mi
Dew Point: 36°   Wind: 13mph
Humidity: 93%   Direction: 180°S
Pressure: 29.54"   Gusts: NA
Location:  43.4265°N, 95.1547°W
Report Text: KMJQ 230053Z AUTO 18011KT 7SM CLR 03/02 A2954 RMK AO2
Loading
Personal Weather Stations






























Interactive Weather Map New forecast layout! Learn more

10-Day Weather Forecast

Advertisements
Track Severe Weather on mobile